createdAt,value
2022-11-07T00:00:58.285Z,15.81
2022-11-07T00:03:30.539Z,15.87
2022-11-07T00:06:03.050Z,15.99
2022-11-07T00:08:34.974Z,16.20
2022-11-07T00:11:08.163Z,16.27
2022-11-07T00:13:40.030Z,16.27
2022-11-07T00:16:12.942Z,16.42
2022-11-07T00:18:45.094Z,16.57
2022-11-07T00:21:16.926Z,16.57
2022-11-07T00:23:49.305Z,16.71
2022-11-07T00:26:24.033Z,16.85
2022-11-07T00:28:56.511Z,16.78
2022-11-07T00:31:28.908Z,15.91
2022-11-07T00:34:01.354Z,15.01
2022-11-07T00:36:33.780Z,14.32
2022-11-07T00:39:05.963Z,14.07
2022-11-07T00:41:38.268Z,14.94
2022-11-07T00:44:10.444Z,15.68
2022-11-07T00:46:42.226Z,16.10
2022-11-07T00:49:15.047Z,16.25
2022-11-07T00:51:47.461Z,16.27
2022-11-07T00:54:19.330Z,16.31
2022-11-07T00:56:51.354Z,16.37
2022-11-07T00:59:23.347Z,16.46
2022-11-07T01:01:55.603Z,16.55
2022-11-07T01:04:45.894Z,16.50
2022-11-07T01:07:18.727Z,16.46
2022-11-07T01:09:50.527Z,16.45
2022-11-07T01:12:22.859Z,16.49
2022-11-07T01:14:54.974Z,16.62
2022-11-07T01:17:26.933Z,16.60
2022-11-07T01:19:59.205Z,16.53
2022-11-07T01:22:31.819Z,16.49
2022-11-07T01:25:03.663Z,16.52
2022-11-07T01:27:36.249Z,16.60
2022-11-07T01:30:10.672Z,16.70
2022-11-07T01:32:42.608Z,16.47
2022-11-07T01:35:15.240Z,15.48
2022-11-07T01:37:47.276Z,14.49
2022-11-07T01:40:21.150Z,13.68
2022-11-07T01:42:53.374Z,13.33
2022-11-07T01:45:27.131Z,14.15
2022-11-07T01:48:03.087Z,15.02
2022-11-07T01:50:36.609Z,15.59
2022-11-07T01:53:09.026Z,15.96
2022-11-07T01:55:40.950Z,16.20
2022-11-07T01:58:13.590Z,16.31
2022-11-07T02:00:45.444Z,16.29
2022-11-07T02:03:21.220Z,16.40
2022-11-07T02:05:57.340Z,16.51
2022-11-07T02:08:31.447Z,16.56
2022-11-07T02:11:04.955Z,16.47
2022-11-07T02:13:36.767Z,15.58
2022-11-07T02:16:09.922Z,14.57
2022-11-07T02:18:44.896Z,13.71
2022-11-07T02:21:25.521Z,13.24
2022-11-07T02:24:03.755Z,13.96
2022-11-07T02:26:34.792Z,14.84
2022-11-07T02:29:10.496Z,15.27
2022-11-07T02:31:42.242Z,15.62
2022-11-07T02:34:14.023Z,15.81
2022-11-07T02:36:45.900Z,15.94
2022-11-07T02:39:17.648Z,15.85
2022-11-07T02:41:50.427Z,14.94
2022-11-07T02:44:22.749Z,13.90
2022-11-07T02:46:54.576Z,13.10
2022-11-07T02:49:26.434Z,12.77
2022-11-07T02:51:58.350Z,13.54
2022-11-07T02:54:30.541Z,14.30
2022-11-07T02:57:02.252Z,14.76
2022-11-07T02:59:33.981Z,15.03
2022-11-07T03:02:05.860Z,15.20
2022-11-07T03:04:37.782Z,15.39
2022-11-07T03:07:09.549Z,15.33
2022-11-07T03:09:41.275Z,14.45
2022-11-07T03:12:13.017Z,13.49
2022-11-07T03:14:45.008Z,12.73
2022-11-07T03:17:16.739Z,12.39
2022-11-07T03:19:48.493Z,13.30
2022-11-07T03:22:20.811Z,14.24
2022-11-07T03:24:52.767Z,14.66
2022-11-07T03:27:24.504Z,14.87
2022-11-07T03:29:56.279Z,14.91
2022-11-07T03:32:28.188Z,14.96
2022-11-07T03:34:59.944Z,15.06
2022-11-07T03:37:31.749Z,15.17
2022-11-07T03:40:03.830Z,15.26
2022-11-07T03:42:40.575Z,15.41
2022-11-07T03:45:14.365Z,15.52
2022-11-07T03:47:47.473Z,15.58
2022-11-07T03:50:21.193Z,15.45
2022-11-07T03:52:53.152Z,14.56
2022-11-07T03:55:24.907Z,13.60
2022-11-07T03:57:56.725Z,12.82
2022-11-07T04:00:28.653Z,12.44
2022-11-07T04:03:01.161Z,13.08
2022-11-07T04:05:33.096Z,13.69
2022-11-07T04:08:05.582Z,14.05
2022-11-07T04:10:37.617Z,14.34
2022-11-07T04:13:29.284Z,14.53
2022-11-07T04:16:24.567Z,14.55
2022-11-07T04:18:56.451Z,14.47
2022-11-07T04:21:28.306Z,14.39
2022-11-07T04:24:00.227Z,14.49
2022-11-07T04:26:50.012Z,14.68
2022-11-07T04:29:21.767Z,14.89
2022-11-07T04:31:53.468Z,15.05
2022-11-07T04:34:25.331Z,15.23
2022-11-07T04:36:57.076Z,15.40
2022-11-07T04:39:29.865Z,15.59
2022-11-07T04:42:01.771Z,15.79
2022-11-07T04:44:33.707Z,15.76
2022-11-07T04:47:05.710Z,14.96
2022-11-07T04:49:37.626Z,14.08
2022-11-07T04:52:10.600Z,13.38
2022-11-07T04:54:42.564Z,13.08
2022-11-07T04:57:15.596Z,13.74
2022-11-07T04:59:48.104Z,14.36
2022-11-07T05:02:19.987Z,14.59
2022-11-07T05:04:52.038Z,14.62
2022-11-07T05:07:23.945Z,14.92
2022-11-07T05:09:55.926Z,15.24
2022-11-07T05:12:27.927Z,15.17
2022-11-07T05:14:59.913Z,15.02
2022-11-07T05:17:32.484Z,14.96
2022-11-07T05:20:04.692Z,14.95
2022-11-07T05:22:56.414Z,14.95
2022-11-07T05:25:28.481Z,14.94
2022-11-07T05:28:00.369Z,14.92
2022-11-07T05:30:32.305Z,14.96
2022-11-07T05:33:04.183Z,15.02
2022-11-07T05:35:36.512Z,15.03
2022-11-07T05:38:08.517Z,14.96
2022-11-07T05:40:41.646Z,14.87
2022-11-07T05:43:15.168Z,14.94
2022-11-07T05:45:47.316Z,15.38
2022-11-07T05:48:19.595Z,15.77
2022-11-07T05:50:51.454Z,15.78
2022-11-07T05:53:24.287Z,14.87
2022-11-07T05:55:56.211Z,13.88
2022-11-07T05:58:28.221Z,13.17
2022-11-07T06:01:04.693Z,12.91
2022-11-07T06:03:36.627Z,13.52
2022-11-07T06:06:09.061Z,14.18
2022-11-07T06:08:40.953Z,14.56
2022-11-07T06:11:12.739Z,14.79
2022-11-07T06:13:44.500Z,14.91
2022-11-07T06:16:16.588Z,15.00
2022-11-07T06:18:48.443Z,15.13
2022-11-07T06:21:20.345Z,15.22
2022-11-07T06:23:52.276Z,15.23
2022-11-07T06:26:24.252Z,15.25
2022-11-07T06:28:56.726Z,15.18
2022-11-07T06:31:28.748Z,15.16
2022-11-07T06:34:00.596Z,15.31
2022-11-07T06:36:32.499Z,15.40
2022-11-07T06:39:04.448Z,15.60
2022-11-07T06:41:36.428Z,15.92
2022-11-07T06:44:08.515Z,16.18
2022-11-07T06:46:40.417Z,16.18
2022-11-07T06:49:12.930Z,15.28
2022-11-07T06:51:47.798Z,14.30
2022-11-07T06:54:20.320Z,13.59
2022-11-07T06:56:52.292Z,13.30
2022-11-07T06:59:24.065Z,14.09
2022-11-07T07:01:56.349Z,14.94
2022-11-07T07:04:28.416Z,15.48
2022-11-07T07:07:00.769Z,15.76
2022-11-07T07:09:34.358Z,16.00
2022-11-07T07:12:07.081Z,16.16
2022-11-07T07:14:38.990Z,16.32
2022-11-07T07:17:12.406Z,16.57
2022-11-07T07:19:44.291Z,16.69
2022-11-07T07:22:16.617Z,16.46
2022-11-07T07:24:51.515Z,15.54
2022-11-07T07:27:23.270Z,14.62
2022-11-07T07:29:55.537Z,14.07
2022-11-07T07:32:27.273Z,14.49
2022-11-07T07:34:59.013Z,15.34
2022-11-07T07:37:30.994Z,16.06
2022-11-07T07:40:02.738Z,16.49
2022-11-07T07:42:34.944Z,16.65
2022-11-07T07:45:07.773Z,16.64
2022-11-07T07:47:40.028Z,16.65
2022-11-07T07:50:13.858Z,16.87
2022-11-07T07:52:45.650Z,17.22
2022-11-07T07:55:17.687Z,17.58
2022-11-07T07:57:50.173Z,17.59
2022-11-07T08:00:22.637Z,16.79
2022-11-07T08:03:00.806Z,15.93
2022-11-07T08:05:33.015Z,15.22
2022-11-07T08:08:04.877Z,14.88
2022-11-07T08:10:42.321Z,15.56
2022-11-07T08:13:14.656Z,16.34
2022-11-07T08:15:46.753Z,16.82
2022-11-07T08:18:19.884Z,17.00
2022-11-07T08:20:52.565Z,17.08
2022-11-07T08:23:25.210Z,17.34
2022-11-07T08:25:58.826Z,17.58
2022-11-07T08:28:33.043Z,17.76
2022-11-07T08:31:07.146Z,17.12
2022-11-07T08:33:39.934Z,16.38
2022-11-07T08:36:12.629Z,15.87
2022-11-07T08:38:44.521Z,15.53
2022-11-07T08:41:21.025Z,15.52
2022-11-07T08:43:54.031Z,16.53
2022-11-07T08:46:25.782Z,17.51
2022-11-07T08:48:57.703Z,18.18
2022-11-07T08:51:29.556Z,18.32
2022-11-07T08:54:01.527Z,17.56
2022-11-07T08:56:34.085Z,16.70
2022-11-07T08:59:06.101Z,16.03
2022-11-07T09:01:54.047Z,15.49
2022-11-07T09:04:30.454Z,14.97
2022-11-07T09:07:02.180Z,14.83
2022-11-07T09:09:34.064Z,15.79
2022-11-07T09:12:06.777Z,16.85
2022-11-07T09:14:38.547Z,17.59
2022-11-07T09:17:10.288Z,18.03
2022-11-07T09:19:42.021Z,18.12
2022-11-07T09:22:14.739Z,17.46
2022-11-07T09:24:46.651Z,16.73
2022-11-07T09:27:18.684Z,16.17
2022-11-07T09:29:50.465Z,15.74
2022-11-07T09:32:43.432Z,15.43
2022-11-07T09:35:14.844Z,15.58
2022-11-07T09:37:46.847Z,16.72
2022-11-07T09:40:40.555Z,17.64
2022-11-07T09:43:29.770Z,18.33
2022-11-07T09:46:12.615Z,18.44
2022-11-07T09:48:49.250Z,17.61
2022-11-07T09:51:29.376Z,16.87
2022-11-07T09:54:07.143Z,16.28
2022-11-07T09:56:42.084Z,15.82
2022-11-07T09:59:21.744Z,15.40
2022-11-07T10:01:53.791Z,15.25
2022-11-07T10:04:26.788Z,16.11
2022-11-07T10:07:05.457Z,17.02
2022-11-07T10:09:41.838Z,17.63
2022-11-07T10:12:27.909Z,18.00
2022-11-07T10:15:10.940Z,18.10
2022-11-07T10:17:54.094Z,17.27
2022-11-07T10:20:37.739Z,16.46
2022-11-07T10:23:29.322Z,15.89
2022-11-07T10:26:07.655Z,15.45
2022-11-07T10:28:46.320Z,15.10
2022-11-07T10:31:18.737Z,15.15
2022-11-07T10:33:55.370Z,16.33
2022-11-07T10:36:31.398Z,17.41
2022-11-07T10:39:09.550Z,18.03
2022-11-07T10:41:42.666Z,18.33
2022-11-07T10:44:23.247Z,17.89
2022-11-07T10:46:55.237Z,17.31
2022-11-07T10:49:29.250Z,16.84
2022-11-07T10:52:11.515Z,16.41
2022-11-07T10:54:44.933Z,15.96
2022-11-07T10:57:20.315Z,15.58
2022-11-07T10:59:59.323Z,15.26
2022-11-07T11:02:33.885Z,15.30
2022-11-07T11:05:21.010Z,16.37
2022-11-07T11:07:55.588Z,17.38
2022-11-07T11:10:30.409Z,17.95
2022-11-07T11:13:02.316Z,18.19
2022-11-07T11:15:43.892Z,17.65
2022-11-07T11:18:19.550Z,17.00
2022-11-07T11:21:01.580Z,16.52
2022-11-07T11:23:37.326Z,16.16
2022-11-07T11:26:17.020Z,15.98
2022-11-07T11:28:54.968Z,15.82
2022-11-07T11:31:30.145Z,15.70
2022-11-07T11:34:11.047Z,15.61
2022-11-07T11:36:48.643Z,15.81
2022-11-07T11:39:27.266Z,16.88
2022-11-07T11:42:00.362Z,17.85
2022-11-07T11:44:38.223Z,18.52
2022-11-07T11:47:17.620Z,18.80
2022-11-07T11:49:55.474Z,18.16
2022-11-07T11:52:31.851Z,17.47
2022-11-07T11:55:03.911Z,16.96
2022-11-07T11:57:47.777Z,16.52
2022-11-07T12:00:21.118Z,16.13
2022-11-07T12:03:27.406Z,15.85
2022-11-07T12:06:17.497Z,15.91
2022-11-07T12:09:07.375Z,16.85
2022-11-07T12:11:48.030Z,17.64
2022-11-07T12:14:45.994Z,18.14
2022-11-07T12:17:25.518Z,18.28
2022-11-07T12:20:04.668Z,17.61
2022-11-07T12:22:48.755Z,16.87
2022-11-07T12:25:28.766Z,16.29
2022-11-07T12:28:09.954Z,15.84
2022-11-07T12:30:53.481Z,15.47
2022-11-07T12:33:34.998Z,15.13
2022-11-07T12:36:12.159Z,15.14
2022-11-07T12:39:02.484Z,16.01
2022-11-07T12:41:48.169Z,16.86
2022-11-07T12:44:43.158Z,17.45
2022-11-07T12:47:29.356Z,17.91
2022-11-07T12:50:15.181Z,17.99
2022-11-07T12:53:01.433Z,17.20
2022-11-07T12:55:40.810Z,16.44
2022-11-07T12:58:19.253Z,15.91
2022-11-07T13:00:53.008Z,15.47
2022-11-07T13:04:02.744Z,15.09
2022-11-07T13:06:40.766Z,15.11
2022-11-07T13:09:23.109Z,16.07
2022-11-07T13:12:05.350Z,16.90
2022-11-07T13:14:41.786Z,17.45
2022-11-07T13:17:20.052Z,17.91
2022-11-07T13:20:03.786Z,17.96
2022-11-07T13:22:38.170Z,17.18
2022-11-07T13:25:25.697Z,16.39
2022-11-07T13:28:27.454Z,15.72
2022-11-07T13:31:05.140Z,15.18
2022-11-07T13:33:39.290Z,14.79
2022-11-07T13:36:26.661Z,14.73
2022-11-07T13:39:01.761Z,15.66
2022-11-07T13:41:34.002Z,16.41
2022-11-07T13:44:09.089Z,16.93
2022-11-07T13:46:47.652Z,17.19
2022-11-07T13:49:23.520Z,17.17
2022-11-07T13:51:59.346Z,17.02
2022-11-07T13:54:39.614Z,16.35
2022-11-07T13:57:17.595Z,15.63
2022-11-07T13:59:51.232Z,15.07
2022-11-07T14:02:24.703Z,14.62
2022-11-07T14:05:17.921Z,14.46
2022-11-07T14:07:54.322Z,15.45
2022-11-07T14:10:31.518Z,16.12
2022-11-07T14:13:08.496Z,16.47
2022-11-07T14:15:48.452Z,16.86
2022-11-07T14:18:24.241Z,17.07
2022-11-07T14:20:58.302Z,17.28
2022-11-07T14:23:33.450Z,17.21
2022-11-07T14:26:18.001Z,16.47
2022-11-07T14:28:50.896Z,15.60
2022-11-07T14:31:29.367Z,14.96
2022-11-07T14:34:03.587Z,14.62
2022-11-07T14:36:36.943Z,15.06
2022-11-07T14:39:15.795Z,15.89
2022-11-07T14:41:48.316Z,16.58
2022-11-07T14:44:28.493Z,16.80
2022-11-07T14:47:04.266Z,17.05
2022-11-07T14:49:40.587Z,17.24
2022-11-07T14:52:18.657Z,17.18
2022-11-07T14:54:57.717Z,16.36
2022-11-07T14:57:30.060Z,15.44
2022-11-07T15:00:02.051Z,14.73
2022-11-07T15:02:36.154Z,14.43
2022-11-07T15:05:21.512Z,15.19
2022-11-07T15:07:53.906Z,16.00
2022-11-07T15:10:34.772Z,16.38
2022-11-07T15:13:22.908Z,16.58
2022-11-07T15:16:03.935Z,16.65
2022-11-07T15:18:40.167Z,16.80
2022-11-07T15:21:26.138Z,16.92
2022-11-07T15:23:58.364Z,16.69
2022-11-07T15:26:34.954Z,15.78
2022-11-07T15:29:22.809Z,14.85
2022-11-07T15:31:54.548Z,14.05
2022-11-07T15:34:45.569Z,13.80
2022-11-07T15:37:22.005Z,14.76
2022-11-07T15:39:54.026Z,15.48
2022-11-07T15:42:25.848Z,15.95
2022-11-07T15:45:01.074Z,16.35
2022-11-07T15:47:32.961Z,16.59
2022-11-07T15:50:05.149Z,16.70
2022-11-07T15:52:36.894Z,16.73
2022-11-07T15:55:12.748Z,16.84
2022-11-07T15:57:46.753Z,16.60
2022-11-07T16:00:21.183Z,15.67
2022-11-07T16:02:53.501Z,14.70
2022-11-07T16:05:25.457Z,13.94
2022-11-07T16:07:58.335Z,13.64
2022-11-07T16:10:30.140Z,14.43
2022-11-07T16:13:05.018Z,15.17
2022-11-07T16:15:37.067Z,15.57
2022-11-07T16:18:14.919Z,15.81
2022-11-07T16:20:48.233Z,16.00
2022-11-07T16:23:20.716Z,16.25
2022-11-07T16:25:53.234Z,16.47
2022-11-07T16:28:29.930Z,16.51
2022-11-07T16:31:02.190Z,16.35
2022-11-07T16:33:34.345Z,16.46
2022-11-07T16:36:18.967Z,16.50
2022-11-07T16:38:51.134Z,16.40
2022-11-07T16:41:23.171Z,16.33
2022-11-07T16:43:55.029Z,16.26
2022-11-07T16:46:31.497Z,16.28
2022-11-07T16:49:14.958Z,16.38
2022-11-07T16:51:47.010Z,16.10
2022-11-07T16:54:18.761Z,15.06
2022-11-07T16:56:52.909Z,14.05
2022-11-07T16:59:26.174Z,13.48
2022-11-07T17:01:58.228Z,14.05
2022-11-07T17:04:30.131Z,14.78
2022-11-07T17:07:01.889Z,15.22
2022-11-07T17:09:34.015Z,15.50
2022-11-07T17:12:06.556Z,15.57
2022-11-07T17:14:38.327Z,15.60
2022-11-07T17:17:10.477Z,15.72
2022-11-07T17:19:42.731Z,15.92
2022-11-07T17:22:16.026Z,16.03
2022-11-07T17:24:47.756Z,15.82
2022-11-07T17:27:23.939Z,14.76
2022-11-07T17:29:56.414Z,13.63
2022-11-07T17:32:28.191Z,13.00
2022-11-07T17:35:26.019Z,13.56
2022-11-07T17:37:51.735Z,14.46
2022-11-07T17:40:29.349Z,15.00
2022-11-07T17:43:01.677Z,15.33
2022-11-07T17:45:33.674Z,15.53
2022-11-07T17:48:05.599Z,15.68
2022-11-07T17:50:37.351Z,15.83
2022-11-07T17:53:09.192Z,15.74
2022-11-07T17:55:41.095Z,14.69
2022-11-07T17:58:12.967Z,13.54
2022-11-07T18:00:45.070Z,12.64
2022-11-07T18:03:16.797Z,12.29
2022-11-07T18:05:50.139Z,13.19
2022-11-07T18:08:45.929Z,14.06
2022-11-07T18:11:14.099Z,14.63
2022-11-07T18:13:46.154Z,14.93
2022-11-07T18:16:20.867Z,15.13
2022-11-07T18:18:53.157Z,15.28
2022-11-07T18:21:24.982Z,15.39
2022-11-07T18:23:57.276Z,15.47
2022-11-07T18:26:31.995Z,15.54
2022-11-07T18:29:07.158Z,15.63
2022-11-07T18:31:40.523Z,15.46
2022-11-07T18:34:14.478Z,14.36
2022-11-07T18:36:47.490Z,13.23
2022-11-07T18:39:22.135Z,12.32
2022-11-07T18:41:55.090Z,11.96
2022-11-07T18:44:26.987Z,12.84
2022-11-07T18:46:59.152Z,13.68
2022-11-07T18:49:31.507Z,14.29
2022-11-07T18:52:03.534Z,14.70
2022-11-07T18:54:35.311Z,15.01
2022-11-07T18:57:07.237Z,15.25
2022-11-07T18:59:39.686Z,15.51
2022-11-07T19:02:12.770Z,15.53
2022-11-07T19:04:44.792Z,14.60
2022-11-07T19:07:16.509Z,13.58
2022-11-07T19:09:50.898Z,12.77
2022-11-07T19:12:22.709Z,12.47
2022-11-07T19:14:54.446Z,13.36
2022-11-07T19:17:26.739Z,14.26
2022-11-07T19:19:58.584Z,14.86
2022-11-07T19:22:32.671Z,15.25
2022-11-07T19:25:05.620Z,15.57
2022-11-07T19:27:37.681Z,15.79
2022-11-07T19:30:11.770Z,15.97
2022-11-07T19:32:43.869Z,15.88
2022-11-07T19:35:16.256Z,14.91
2022-11-07T19:37:48.044Z,13.88
2022-11-07T19:40:20.313Z,13.04
2022-11-07T19:42:52.725Z,12.71
2022-11-07T19:45:26.382Z,13.64
2022-11-07T19:47:58.267Z,14.54
2022-11-07T19:50:30.626Z,15.06
2022-11-07T19:53:02.474Z,15.39
2022-11-07T19:55:34.422Z,15.59
2022-11-07T19:58:06.483Z,15.71
2022-11-07T20:00:38.318Z,15.84
2022-11-07T20:03:10.323Z,15.74
2022-11-07T20:05:42.801Z,14.73
2022-11-07T20:08:14.555Z,13.58
2022-11-07T20:10:50.500Z,12.65
2022-11-07T20:13:22.247Z,12.26
2022-11-07T20:15:56.894Z,13.09
2022-11-07T20:18:30.491Z,13.93
2022-11-07T20:21:06.956Z,14.48
2022-11-07T20:23:38.975Z,14.78
2022-11-07T20:26:13.143Z,14.97
2022-11-07T20:28:44.997Z,15.10
2022-11-07T20:31:18.521Z,15.23
2022-11-07T20:33:51.095Z,15.11
2022-11-07T20:36:23.123Z,14.04
2022-11-07T20:38:56.438Z,12.89
2022-11-07T20:41:28.916Z,12.28
2022-11-07T20:44:03.537Z,12.94
2022-11-07T20:46:37.100Z,13.65
2022-11-07T20:49:12.954Z,14.15
2022-11-07T20:51:45.365Z,14.54
2022-11-07T20:54:17.663Z,14.80
2022-11-07T20:56:49.564Z,15.01
2022-11-07T20:59:21.350Z,15.17
2022-11-07T21:01:56.534Z,15.07
2022-11-07T21:04:44.556Z,14.02
2022-11-07T21:07:23.715Z,12.78
2022-11-07T21:09:55.533Z,12.24
2022-11-07T21:12:27.284Z,13.04
2022-11-07T21:14:59.127Z,13.94
2022-11-07T21:17:31.500Z,14.54
2022-11-07T21:20:05.003Z,14.94
2022-11-07T21:22:36.777Z,15.24
2022-11-07T21:25:09.990Z,15.43
2022-11-07T21:27:41.750Z,15.63
2022-11-07T21:30:14.483Z,15.61
2022-11-07T21:32:46.420Z,14.66
2022-11-07T21:35:18.591Z,13.58
2022-11-07T21:37:50.468Z,12.77
2022-11-07T21:40:22.288Z,12.47
2022-11-07T21:42:55.109Z,13.37
2022-11-07T21:45:26.860Z,14.28
2022-11-07T21:47:58.641Z,14.85
2022-11-07T21:50:44.031Z,15.24
2022-11-07T21:53:16.985Z,15.55
2022-11-07T21:55:48.857Z,15.81
2022-11-07T21:58:20.729Z,16.04
2022-11-07T22:00:52.828Z,16.00
2022-11-07T22:03:51.190Z,15.03
2022-11-07T22:06:19.836Z,13.88
2022-11-07T22:08:52.896Z,13.07
2022-11-07T22:11:24.836Z,12.79
2022-11-07T22:13:56.793Z,13.72
2022-11-07T22:16:28.717Z,14.69
2022-11-07T22:19:01.107Z,15.37
2022-11-07T22:21:33.127Z,15.81
2022-11-07T22:24:05.101Z,16.07
2022-11-07T22:26:36.871Z,16.03
2022-11-07T22:29:08.726Z,15.05
2022-11-07T22:31:40.478Z,14.00
2022-11-07T22:34:12.977Z,13.16
2022-11-07T22:36:44.755Z,12.86
2022-11-07T22:39:16.490Z,13.82
2022-11-07T22:41:48.257Z,14.71
2022-11-07T22:44:20.026Z,15.31
2022-11-07T22:46:51.798Z,15.73
2022-11-07T22:49:23.968Z,16.03
2022-11-07T22:51:55.728Z,15.98
2022-11-07T22:54:29.444Z,15.00
2022-11-07T22:57:01.186Z,13.93
2022-11-07T22:59:33.028Z,13.09
2022-11-07T23:02:04.921Z,12.78
2022-11-07T23:04:36.844Z,13.75
2022-11-07T23:07:08.606Z,14.68
2022-11-07T23:09:40.898Z,15.25
2022-11-07T23:12:12.681Z,15.61
2022-11-07T23:14:46.734Z,15.91
2022-11-07T23:17:18.510Z,15.88
2022-11-07T23:19:54.253Z,14.89
2022-11-07T23:22:31.202Z,13.75
2022-11-07T23:25:04.201Z,12.84
2022-11-07T23:27:36.248Z,12.50
2022-11-07T23:30:09.740Z,13.43
2022-11-07T23:32:42.229Z,14.36
2022-11-07T23:35:14.101Z,14.93
2022-11-07T23:37:45.888Z,15.28
2022-11-07T23:40:18.240Z,15.52
2022-11-07T23:42:51.009Z,15.73
2022-11-07T23:45:40.473Z,15.70
2022-11-07T23:48:32.647Z,14.65
2022-11-07T23:51:05.334Z,13.53
2022-11-07T23:53:56.561Z,12.76
2022-11-07T23:56:29.863Z,12.50
2022-11-07T23:59:19.177Z,13.49
